Time;durP1;ratioP1;P1;durP2;ratioP2;P2;SDS_P1;SDS_P2;PMS_P1;PMS_P2;Temp;Humidity;BMP_temperature;BMP_pressure;BME280_temperature;BME280_humidity;BME280_pressure;Samples;Min_cycle;Max_cycle;Signal;HPM_P1;HPM_P2
2022/05/19 00:01:06;;;;;;;;;12.00;11.00;;;;;25.46;45.50;101083.13;5011627;28;46308;-49
2022/05/19 00:03:35;;;;;;;;;9.50;9.50;;;;;25.46;45.46;101085.78;5003844;28;45600;-45
2022/05/19 00:06:01;;;;;;;;;11.00;10.25;;;;;25.47;45.71;101082.13;5000483;28;45419;-44
2022/05/19 00:08:27;;;;;;;;;10.00;10.00;;;;;25.48;45.30;101085.66;5000723;28;45450;-45
2022/05/19 00:10:55;;;;;;;;;10.50;10.00;;;;;25.47;45.90;101087.44;4997647;28;46326;-45
2022/05/19 00:13:24;;;;;;;;;12.25;12.25;;;;;25.47;45.74;101086.59;4996837;28;45202;-45
2022/05/19 00:15:49;;;;;;;;;11.00;11.00;;;;;25.46;45.38;101092.88;4997035;28;45396;-49
2022/05/19 00:18:15;;;;;;;;;11.00;10.00;;;;;25.46;45.36;101085.78;4997621;28;45394;-44
2022/05/19 00:20:40;;;;;;;;;10.50;9.25;;;;;25.47;45.32;101082.13;5000822;28;46025;-46
2022/05/19 00:23:05;;;;;;;;;10.25;10.25;;;;;25.46;45.61;101080.47;5003461;28;45440;-44
2022/05/19 00:25:31;;;;;;;;;12.25;8.75;;;;;25.47;45.96;101082.13;5000530;28;45399;-44
2022/05/19 00:27:56;;;;;;;;;10.75;10.75;;;;;25.47;45.74;101076.81;5009555;28;45367;-48
2022/05/19 00:30:22;;;;;;;;;12.50;10.00;;;;;25.47;45.39;101068.03;5016732;28;49985;-47
2022/05/19 00:32:48;;;;;;;;;9.25;9.25;;;;;25.47;45.74;101065.38;5019549;28;45221;-48
2022/05/19 00:35:14;;;;;;;;;10.75;10.00;;;;;25.47;45.80;101065.38;5008125;28;45285;-49
2022/05/19 00:37:39;;;;;;;;;12.25;10.75;;;;;25.47;46.12;101060.06;4998145;28;45177;-50
2022/05/19 00:40:06;;;;;;;;;11.00;10.00;;;;;25.47;46.06;101057.41;4997971;28;45250;-52
2022/05/19 00:42:43;;;;;;;;;11.75;9.25;;;;;25.47;45.68;101044.16;4996569;28;45727;-48
2022/05/19 00:45:13;;;;;;;;;12.00;10.75;;;;;25.47;45.63;101052.09;4996803;28;45414;-50
2022/05/19 00:47:48;;;;;;;;;10.25;9.75;;;;;25.48;46.23;101045.84;4996274;28;45303;-50
2022/05/19 00:50:23;;;;;;;;;11.50;11.50;;;;;25.48;45.79;101048.50;4996493;28;45357;-51
2022/05/19 00:52:53;;;;;;;;;10.50;10.50;;;;;25.47;45.82;101039.69;4996300;28;45276;-48
2022/05/19 00:55:25;;;;;;;;;10.00;10.00;;;;;25.47;45.60;101023.75;4996774;28;45462;-55
2022/05/19 00:57:59;;;;;;;;;9.25;9.25;;;;;25.48;46.10;101027.28;5001050;28;45249;-52
2022/05/19 01:00:26;;;;;;;;;10.00;10.00;;;;;25.46;45.75;101021.22;4999655;28;45395;-51
2022/05/19 01:02:57;;;;;;;;;10.50;10.50;;;;;25.47;46.08;101026.41;4996544;28;45906;-52
2022/05/19 01:05:36;;;;;;;;;10.00;10.00;;;;;25.47;45.80;101020.28;4999968;28;45364;-51
2022/05/19 01:08:10;;;;;;;;;11.00;11.00;;;;;25.47;45.96;101018.44;4999754;28;45214;-48
2022/05/19 01:10:37;;;;;;;;;11.00;11.00;;;;;25.47;46.47;101018.44;4997309;28;46810;-44
2022/05/19 01:13:02;;;;;;;;;10.50;9.25;;;;;25.47;45.96;101007.00;4995611;28;45634;-50
2022/05/19 01:15:28;;;;;;;;;10.75;10.75;;;;;25.47;46.19;101002.53;4996289;28;45402;-45
2022/05/19 01:17:54;;;;;;;;;13.25;11.00;;;;;25.47;46.32;101002.53;4999931;28;45551;-57
2022/05/19 01:20:25;;;;;;;;;12.25;10.75;;;;;25.46;46.64;101008.81;4999366;28;45399;-52
2022/05/19 01:23:03;;;;;;;;;10.75;10.75;;;;;25.47;46.76;101001.69;4999981;28;45245;-54
2022/05/19 01:25:55;;;;;;;;;11.25;11.00;;;;;25.47;46.72;101012.31;4997184;28;45273;-54
2022/05/19 01:28:21;;;;;;;;;10.50;10.25;;;;;25.46;46.90;101000.84;4997283;28;45300;-56
2022/05/19 01:30:46;;;;;;;;;11.25;11.00;;;;;25.47;46.91;101001.69;4998070;28;46189;-46
2022/05/19 01:33:12;;;;;;;;;10.00;10.00;;;;;25.46;46.71;101008.81;4998494;28;45325;-48
2022/05/19 01:35:38;;;;;;;;;11.50;11.50;;;;;25.46;46.50;101005.31;4996141;28;45226;-52
2022/05/19 01:38:10;;;;;;;;;13.00;11.25;;;;;25.46;46.80;101005.31;4996600;28;45691;-48
2022/05/19 01:40:44;;;;;;;;;14.75;13.00;;;;;25.46;47.23;100997.34;4997963;28;45294;-52
2022/05/19 01:43:21;;;;;;;;;9.75;9.75;;;;;25.47;47.22;101004.34;5016583;28;45326;-53
2022/05/19 01:46:05;;;;;;;;;12.25;11.75;;;;;25.48;47.01;101008.69;5018718;28;44742;-52
2022/05/19 01:48:48;;;;;;;;;11.00;10.75;;;;;25.48;47.39;101008.69;5019497;28;44730;-50
2022/05/19 01:51:52;;;;;;;;;12.75;12.75;;;;;25.47;47.51;101007.84;5014648;28;45298;-48
2022/05/19 01:54:56;;;;;;;;;12.00;10.75;;;;;25.46;47.00;101008.81;4988444;28;45751;-46
2022/05/19 01:57:27;;;;;;;;;12.50;12.25;;;;;25.46;47.07;101005.31;4978943;28;45360;-45
2022/05/19 02:00:05;;;;;;;;;12.00;12.00;;;;;25.47;47.39;101002.53;4999655;28;45356;-51
2022/05/19 02:02:39;;;;;;;;;10.00;10.00;;;;;25.47;47.23;101002.53;4999269;28;47048;-47
2022/05/19 02:05:14;;;;;;;;;12.75;10.75;;;;;25.46;47.35;101003.50;5002079;28;45340;-50
2022/05/19 02:07:43;;;;;;;;;12.75;12.25;;;;;25.46;47.77;101005.31;5006112;28;45467;-45
2022/05/19 02:10:14;;;;;;;;;14.75;13.75;;;;;25.46;47.87;101010.63;4999333;28;45658;-45
2022/05/19 02:12:40;;;;;;;;;14.00;13.00;;;;;25.46;48.58;101005.31;4998418;28;46126;-48
2022/05/19 02:15:12;;;;;;;;;13.75;13.75;;;;;25.46;48.80;101005.31;4999038;28;45430;-46
2022/05/19 02:17:38;;;;;;;;;14.00;13.50;;;;;25.45;48.81;101008.91;5002369;28;45166;-46
2022/05/19 02:20:08;;;;;;;;;15.00;13.00;;;;;25.44;48.59;101007.22;5002513;28;45557;-46
2022/05/19 02:22:38;;;;;;;;;12.50;12.50;;;;;25.45;48.70;101000.94;5001981;28;46255;-46
2022/05/19 02:25:16;;;;;;;;;15.00;13.50;;;;;25.45;49.26;101003.59;4998769;28;45881;-46
2022/05/19 02:28:03;;;;;;;;;15.00;13.75;;;;;25.45;49.20;101009.78;4999181;28;45486;-52
2022/05/19 02:30:34;;;;;;;;;19.75;13.75;;;;;25.43;49.17;101005.53;4998589;28;45653;-47
2022/05/19 02:32:59;;;;;;;;;14.75;12.75;;;;;25.43;49.44;101005.53;4999625;28;45411;-49
2022/05/19 02:35:26;;;;;;;;;15.00;15.00;;;;;25.43;49.73;101008.19;4999580;28;45415;-46
2022/05/19 02:37:52;;;;;;;;;14.50;13.00;;;;;25.42;49.72;101002.03;5000919;28;45471;-46
2022/05/19 02:40:20;;;;;;;;;14.00;12.00;;;;;25.41;49.97;101004.81;5010630;28;45337;-48
2022/05/19 02:42:46;;;;;;;;;16.00;14.75;;;;;25.41;49.75;101007.47;5000944;28;46455;-45
2022/05/19 02:45:13;;;;;;;;;13.25;12.50;;;;;25.40;50.14;101001.28;4998153;28;45292;-49
2022/05/19 02:47:39;;;;;;;;;14.50;12.25;;;;;25.41;50.10;101004.81;5000792;28;45451;-54
2022/05/19 02:50:05;;;;;;;;;12.50;12.00;;;;;25.39;49.59;100998.72;5003171;28;45344;-48
2022/05/19 02:52:30;;;;;;;;;15.25;12.75;;;;;25.39;49.63;101004.88;5000423;28;46234;-47
2022/05/19 02:54:56;;;;;;;;;15.75;14.25;;;;;25.40;49.50;101000.44;5001030;28;45399;-50
2022/05/19 02:57:21;;;;;;;;;14.00;13.00;;;;;25.40;49.51;101003.09;5011631;28;45399;-46
2022/05/19 02:59:47;;;;;;;;;14.50;13.50;;;;;25.40;50.04;101005.75;5017391;28;44803;-50
2022/05/19 03:02:12;;;;;;;;;14.75;14.75;;;;;25.40;50.12;101000.44;5015638;28;46154;-50
2022/05/19 03:04:38;;;;;;;;;14.25;13.25;;;;;25.39;50.20;101007.53;5015159;28;45241;-46
2022/05/19 03:07:04;;;;;;;;;16.00;13.00;;;;;25.40;49.87;101008.38;5003832;28;45293;-50
2022/05/19 03:09:29;;;;;;;;;11.00;11.00;;;;;25.39;50.31;101019.97;4998747;28;45253;-53
2022/05/19 03:11:55;;;;;;;;;14.75;13.75;;;;;25.38;49.92;101021.75;4998104;28;48726;-46
2022/05/19 03:14:20;;;;;;;;;15.75;14.50;;;;;25.38;50.07;101016.44;5001740;28;46447;-50
2022/05/19 03:16:46;;;;;;;;;13.50;12.00;;;;;25.37;50.16;101005.97;5003941;28;45253;-48
2022/05/19 03:19:12;;;;;;;;;17.25;16.25;;;;;25.38;50.43;101007.66;5003352;28;45221;-51
2022/05/19 03:21:38;;;;;;;;;19.00;15.00;;;;;25.35;50.23;100987.50;5001310;28;46711;-49
2022/05/19 03:24:04;;;;;;;;;16.00;14.00;;;;;25.35;50.78;100997.25;4998488;28;45406;-48
2022/05/19 03:26:29;;;;;;;;;13.50;13.50;;;;;25.34;50.50;100996.44;4998375;28;45362;-53
2022/05/19 03:28:54;;;;;;;;;15.50;12.75;;;;;25.34;50.71;101004.38;4997718;28;45472;-49
2022/05/19 03:31:20;;;;;;;;;13.25;13.25;;;;;25.34;50.61;101006.19;4997618;28;46121;-47
2022/05/19 03:33:46;;;;;;;;;14.75;14.75;;;;;25.32;50.83;101004.47;4997258;28;45388;-53
2022/05/19 03:36:12;;;;;;;;;14.75;14.50;;;;;25.31;51.12;101002.78;4997392;28;45582;-47
2022/05/19 03:38:37;;;;;;;;;14.25;13.25;;;;;25.31;50.47;101005.44;4997527;28;45362;-50
2022/05/19 03:41:03;;;;;;;;;14.25;13.50;;;;;25.30;50.94;101001.09;4997265;28;45286;-49
2022/05/19 03:43:29;;;;;;;;;14.75;14.25;;;;;25.30;50.63;100995.78;4997057;28;45462;-44
2022/05/19 03:45:54;;;;;;;;;13.75;13.75;;;;;25.29;50.54;100999.41;4997417;28;45198;-53
2022/05/19 03:48:19;;;;;;;;;16.25;14.25;;;;;25.30;51.16;101001.09;5004802;28;45177;-51
2022/05/19 03:50:46;;;;;;;;;16.75;15.75;;;;;25.29;51.16;100998.56;5000065;28;45348;-45
2022/05/19 03:53:12;;;;;;;;;12.75;12.75;;;;;25.29;50.39;101002.06;5012296;28;45281;-48
2022/05/19 03:55:38;;;;;;;;;18.25;14.25;;;;;25.30;50.52;101003.72;4997168;28;45902;-49
2022/05/19 03:58:04;;;;;;;;;15.75;14.25;;;;;25.30;50.56;100998.44;4997133;28;45565;-49
2022/05/19 04:00:30;;;;;;;;;14.00;11.00;;;;;25.29;51.01;101004.72;4996721;28;46980;-48
2022/05/19 04:02:56;;;;;;;;;13.25;13.25;;;;;25.29;50.90;101015.34;4997030;28;45738;-49
2022/05/19 04:05:21;;;;;;;;;14.75;13.00;;;;;25.29;51.15;101004.72;4997346;28;45428;-49
2022/05/19 04:07:46;;;;;;;;;13.25;12.25;;;;;25.28;51.27;101003.03;4997031;28;45328;-49
2022/05/19 04:10:12;;;;;;;;;17.00;14.50;;;;;25.29;50.77;101010.03;4996924;28;45380;-47
2022/05/19 04:12:39;;;;;;;;;14.75;13.75;;;;;25.29;51.26;101015.34;4996001;28;45375;-50
2022/05/19 04:15:05;;;;;;;;;14.25;14.25;;;;;25.28;51.45;101008.34;5000118;28;45241;-50
2022/05/19 04:17:33;;;;;;;;;14.75;14.25;;;;;25.28;50.60;101002.16;5001350;28;45174;-44
2022/05/19 04:20:00;;;;;;;;;15.25;15.25;;;;;25.27;51.41;101000.47;5001366;28;46327;-45
2022/05/19 04:22:26;;;;;;;;;15.75;14.00;;;;;25.26;51.27;101004.94;5005631;28;45431;-56
2022/05/19 04:24:51;;;;;;;;;17.00;15.00;;;;;25.26;50.99;101002.28;5000331;28;45794;-46
2022/05/19 04:27:17;;;;;;;;;14.50;13.75;;;;;25.26;51.38;100998.78;4997387;28;45412;-45
2022/05/19 04:29:42;;;;;;;;;16.00;14.75;;;;;25.24;51.42;100998.91;4996487;28;46798;-49
2022/05/19 04:32:08;;;;;;;;;16.75;14.00;;;;;25.24;51.16;101000.72;4996589;28;46596;-47
2022/05/19 04:34:33;;;;;;;;;13.00;12.75;;;;;25.24;51.23;101006.03;4999828;28;45341;-45
2022/05/19 04:36:59;;;;;;;;;12.00;12.00;;;;;25.23;50.81;101004.31;4997341;28;45511;-47
2022/05/19 04:39:24;;;;;;;;;13.50;13.50;;;;;25.23;51.01;101007.81;4997391;28;45269;-50
2022/05/19 04:41:49;;;;;;;;;15.00;14.00;;;;;25.22;50.83;101006.09;4997269;28;45512;-45
2022/05/19 04:44:18;;;;;;;;;13.25;13.00;;;;;25.23;50.52;101012.28;5016378;28;45395;-49
2022/05/19 04:46:43;;;;;;;;;14.25;14.25;;;;;25.23;50.76;101007.81;5019886;28;45065;-49
2022/05/19 04:49:08;;;;;;;;;14.00;14.00;;;;;25.23;51.19;101014.94;5018982;28;45208;-46
2022/05/19 04:51:34;;;;;;;;;14.00;14.00;;;;;25.24;51.36;101017.47;5004553;28;45320;-49
2022/05/19 04:53:59;;;;;;;;;14.75;14.75;;;;;25.24;51.32;101025.41;4999177;28;45331;-46
2022/05/19 04:56:24;;;;;;;;;14.50;13.50;;;;;25.24;50.80;101037.84;5002138;28;45556;-45
2022/05/19 04:58:49;;;;;;;;;14.00;12.00;;;;;25.23;51.10;101052.91;5013214;28;47204;-46
2022/05/19 05:01:15;;;;;;;;;14.25;14.25;;;;;25.24;51.21;101054.59;4995715;28;45432;-46
2022/05/19 05:03:40;;;;;;;;;16.00;13.75;;;;;25.23;50.71;101058.22;4996499;28;45435;-47
2022/05/19 05:06:05;;;;;;;;;12.50;11.75;;;;;25.26;51.17;101073.91;4996308;28;45703;-46
2022/05/19 05:08:31;;;;;;;;;15.25;14.00;;;;;25.28;51.62;101071.13;4996182;28;46153;-47
2022/05/19 05:10:56;;;;;;;;;16.50;14.00;;;;;25.29;51.26;101062.22;5003871;28;45886;-46
2022/05/19 05:13:21;;;;;;;;;14.25;13.00;;;;;25.28;51.02;101076.44;5005294;28;45289;-49
2022/05/19 05:15:47;;;;;;;;;15.75;14.25;;;;;25.28;50.97;101082.63;5007418;28;45329;-46
2022/05/19 05:18:12;;;;;;;;;16.50;16.50;;;;;25.27;51.29;101110.09;5001539;28;46284;-50
2022/05/19 05:20:41;;;;;;;;;17.25;15.25;;;;;25.28;51.47;101134.81;5002271;28;45276;-47
2022/05/19 05:23:06;;;;;;;;;14.75;14.50;;;;;25.24;51.49;101123.56;4998585;28;45305;-47
2022/05/19 05:25:32;;;;;;;;;14.50;14.00;;;;;25.21;51.17;101091.94;5000766;28;45632;-50
2022/05/19 05:27:57;;;;;;;;;13.25;13.25;;;;;25.20;51.61;101100.03;5012192;28;46896;-49
2022/05/19 05:30:24;;;;;;;;;14.75;14.75;;;;;25.21;51.50;101121.13;5017115;28;45253;-48
2022/05/19 05:32:50;;;;;;;;;16.75;16.00;;;;;25.21;51.83;101123.78;5003395;28;45364;-44
2022/05/19 05:35:15;;;;;;;;;15.50;13.75;;;;;25.20;51.39;101111.47;5015347;28;44959;-51
2022/05/19 05:37:41;;;;;;;;;17.50;15.25;;;;;25.22;51.58;101122.81;5024028;28;45390;-45
2022/05/19 05:40:10;;;;;;;;;16.25;14.75;;;;;25.24;51.44;101118.25;5024845;28;45246;-51
2022/05/19 05:42:36;;;;;;;;;14.25;13.25;;;;;25.24;51.50;101112.97;5024415;28;44696;-53
2022/05/19 05:45:02;;;;;;;;;14.00;13.00;;;;;25.26;51.54;101121.66;5022924;28;45138;-46
2022/05/19 05:47:28;;;;;;;;;16.50;14.25;;;;;25.28;50.96;101118.88;5009787;28;45154;-51
2022/05/19 05:49:53;;;;;;;;;14.00;12.75;;;;;25.27;51.33;101128.66;5000647;28;45340;-45
2022/05/19 05:52:19;;;;;;;;;11.25;11.25;;;;;25.27;51.08;101115.41;5015981;28;45496;-46
2022/05/19 05:54:44;;;;;;;;;14.00;13.00;;;;;25.26;51.11;101111.06;5001198;28;45371;-45
2022/05/19 05:57:09;;;;;;;;;15.25;13.00;;;;;25.25;51.37;101114.66;5001822;28;45451;-49
2022/05/19 05:59:35;;;;;;;;;15.75;13.25;;;;;25.23;51.11;101113.91;5000482;28;45431;-45
2022/05/19 06:02:00;;;;;;;;;13.75;13.50;;;;;25.23;50.88;101110.44;5003554;28;45326;-48
2022/05/19 06:04:25;;;;;;;;;15.00;13.50;;;;;25.22;50.91;101098.94;5003862;28;45635;-46
2022/05/19 06:06:51;;;;;;;;;14.75;14.75;;;;;25.23;50.86;101095.34;4998576;28;45362;-49
2022/05/19 06:09:17;;;;;;;;;14.50;14.50;;;;;25.26;51.28;101097.78;4998824;28;45339;-46
2022/05/19 06:11:43;;;;;;;;;14.25;13.00;;;;;25.27;50.92;101102.13;4999561;28;45380;-51
2022/05/19 06:14:09;;;;;;;;;13.75;13.50;;;;;25.28;50.97;101103.84;5000674;28;45574;-47
2022/05/19 06:16:35;;;;;;;;;13.00;12.75;;;;;25.29;50.99;101105.53;5001445;28;46038;-47
2022/05/19 06:19:00;;;;;;;;;15.50;13.25;;;;;25.28;50.79;101110.94;5002501;28;45322;-47
2022/05/19 06:21:25;;;;;;;;;14.75;13.00;;;;;25.29;50.86;101116.16;5006830;28;45221;-49
2022/05/19 06:23:51;;;;;;;;;14.75;12.75;;;;;25.29;50.91;101117.94;5001887;28;45649;-46
2022/05/19 06:26:16;;;;;;;;;15.25;13.75;;;;;25.28;50.85;101124.19;5014497;28;46182;-45
2022/05/19 06:28:41;;;;;;;;;16.75;14.25;;;;;25.27;50.88;101118.06;4999420;28;45313;-46
2022/05/19 06:31:07;;;;;;;;;13.00;13.00;;;;;25.27;50.90;101118.06;4999028;28;45238;-49
2022/05/19 06:33:35;;;;;;;;;16.00;14.50;;;;;25.25;51.06;101109.34;5001072;28;45251;-54
2022/05/19 06:36:01;;;;;;;;;13.75;12.25;;;;;25.24;51.07;101101.50;5001029;28;45467;-50
2022/05/19 06:38:26;;;;;;;;;15.50;13.50;;;;;25.24;51.65;101099.69;5000226;28;45383;-46
2022/05/19 06:42:00;;;;;;;;;17.00;17.00;;;;;25.24;51.49;101112.13;4999591;28;45431;-50
2022/05/19 06:43:37;;;;;;;;;13.25;13.25;;;;;25.24;50.90;101112.97;5000645;28;45316;-51
2022/05/19 06:46:02;;;;;;;;;14.25;12.25;;;;;25.26;51.35;101119.00;5000353;28;45328;-51
2022/05/19 06:48:28;;;;;;;;;13.25;12.25;;;;;25.27;51.56;101112.75;5004840;28;45415;-50
2022/05/19 06:50:53;;;;;;;;;15.00;14.25;;;;;25.27;51.48;101118.06;5029485;28;44756;-51
2022/05/19 06:53:19;;;;;;;;;14.50;14.50;;;;;25.26;51.25;101120.78;5015364;28;44893;-50
2022/05/19 06:55:44;;;;;;;;;18.00;15.25;;;;;25.27;51.58;101123.34;5015985;28;46086;-50
2022/05/19 06:58:09;;;;;;;;;16.75;15.00;;;;;25.27;51.05;101118.06;5006356;28;45255;-48
2022/05/19 07:00:35;;;;;;;;;16.00;15.25;;;;;25.29;51.48;101131.19;5001699;28;45285;-49
2022/05/19 07:03:01;;;;;;;;;17.00;16.00;;;;;25.28;51.87;101127.72;5001598;28;45424;-47
2022/05/19 07:05:30;;;;;;;;;16.75;15.25;;;;;25.27;51.23;101133.97;4998328;28;46153;-52
2022/05/19 07:07:56;;;;;;;;;19.00;14.75;;;;;25.26;51.37;101132.28;4998645;28;45313;-48
2022/05/19 07:10:23;;;;;;;;;14.75;14.75;;;;;25.25;51.82;101129.72;5001465;28;45395;-47
2022/05/19 07:12:48;;;;;;;;;17.00;17.00;;;;;25.23;51.89;101126.34;5002387;28;45410;-53
2022/05/19 07:15:16;;;;;;;;;21.00;17.00;;;;;25.23;51.53;101134.31;4998400;28;46614;-49
2022/05/19 07:17:41;;;;;;;;;19.00;16.75;;;;;25.23;51.69;101134.31;5000818;28;45756;-49
2022/05/19 07:22:52;;;;;;;;;18.50;17.50;;;;;25.22;52.29;101130.78;4999495;28;45749;-48
2022/05/19 07:25:18;;;;;;;;;21.00;18.25;;;;;25.23;52.20;101134.31;4997794;28;46184;-50
2022/05/19 07:27:43;;;;;;;;;18.00;17.00;;;;;25.23;52.15;101124.53;4997512;28;45245;-51
2022/05/19 07:30:09;;;;;;;;;19.00;17.25;;;;;25.23;52.27;101124.53;4997589;28;45421;-50
2022/05/19 07:32:35;;;;;;;;;16.75;15.75;;;;;25.23;51.63;101127.19;4997642;28;45640;-48
2022/05/19 07:35:01;;;;;;;;;17.00;16.25;;;;;25.23;52.19;101127.19;4997415;28;45505;-51
2022/05/19 07:37:26;;;;;;;;;19.00;18.50;;;;;25.23;51.81;101136.94;4997367;28;45441;-48
2022/05/19 07:39:52;;;;;;;;;17.75;15.75;;;;;25.24;51.64;101152.75;4996134;28;45316;-51
2022/05/19 07:42:18;;;;;;;;;18.25;16.25;;;;;25.25;52.41;101146.50;4998067;28;45332;-46
2022/05/19 07:44:44;;;;;;;;;17.00;16.00;;;;;25.27;52.27;101147.22;5003049;28;46267;-53
2022/05/19 07:47:10;;;;;;;;;21.75;18.75;;;;;25.32;52.05;101141.59;4999107;28;45248;-48
2022/05/19 07:49:35;;;;;;;;;18.75;16.25;;;;;25.36;52.08;101142.22;4997184;28;45317;-51
2022/05/19 07:52:01;;;;;;;;;15.25;15.25;;;;;25.37;51.51;101143.91;4997417;28;45498;-51
2022/05/19 07:54:27;;;;;;;;;17.75;17.75;;;;;25.39;52.08;101142.84;4996800;28;45304;-51
2022/05/19 07:56:54;;;;;;;;;21.00;19.00;;;;;25.41;51.54;101154.22;4996746;28;45799;-52
2022/05/19 07:59:19;;;;;;;;;23.50;17.00;;;;;25.43;51.58;101156.78;4996947;28;45575;-52
2022/05/19 08:01:45;;;;;;;;;20.00;17.50;;;;;25.45;51.71;101168.13;4997260;28;45552;-48
2022/05/19 08:04:13;;;;;;;;;18.25;17.00;;;;;25.50;51.63;101167.78;4996913;28;45988;-49
2022/05/19 08:06:39;;;;;;;;;22.00;19.00;;;;;25.51;51.27;101173.00;5000675;28;45421;-51
2022/05/19 08:10:20;;;;;;;;;19.75;18.25;;;;;25.53;51.44;101176.38;5001212;28;45305;-50
2022/05/19 08:11:53;;;;;;;;;17.25;15.75;;;;;25.56;51.51;101178.00;4998988;28;45277;-53
2022/05/19 08:17:04;;;;;;;;;19.00;17.50;;;;;25.59;51.22;101183.91;5001867;28;45738;-48
2022/05/19 08:19:30;;;;;;;;;18.00;16.00;;;;;25.61;51.32;101197.94;4999953;28;45451;-49
2022/05/19 08:21:56;;;;;;;;;20.50;20.50;;;;;25.62;51.38;101204.94;4996186;28;45706;-45
2022/05/19 08:24:24;;;;;;;;;17.50;16.25;;;;;25.66;51.44;101205.56;4996834;28;46438;-51
2022/05/19 08:26:50;;;;;;;;;23.75;20.00;;;;;25.69;51.36;101207.16;4996367;28;46032;-52
2022/05/19 08:29:18;;;;;;;;;19.25;15.75;;;;;25.70;51.38;101195.56;4996090;28;45407;-51
2022/05/19 08:31:45;;;;;;;;;20.00;17.25;;;;;25.72;51.74;101217.56;4996031;28;45396;-50
2022/05/19 08:34:10;;;;;;;;;15.50;15.50;;;;;25.72;51.50;101236.13;4996498;28;46269;-47
2022/05/19 15:43:12;;;;;;;;;3.75;3.75;;;;;26.11;42.81;101446.75;5562693;22;46236;-54
2022/05/19 15:45:39;;;;;;;;;3.75;3.50;;;;;26.08;43.02;101436.28;4997076;28;45688;-53
2022/05/19 15:48:06;;;;;;;;;2.00;2.00;;;;;26.11;43.17;101440.59;4997406;28;45454;-54
2022/05/19 15:50:34;;;;;;;;;4.75;4.75;;;;;26.10;42.85;101439.72;4997304;28;45485;-56
2022/05/19 15:53:00;;;;;;;;;4.00;4.00;;;;;26.10;42.95;101447.69;5012418;28;47058;-55
2022/05/19 15:55:28;;;;;;;;;3.75;3.75;;;;;26.07;43.20;101438.09;4993597;28;46591;-54
2022/05/19 15:57:53;;;;;;;;;4.00;4.00;;;;;26.10;43.26;101442.38;4996350;28;45438;-57
2022/05/19 16:00:20;;;;;;;;;4.00;3.25;;;;;26.12;42.90;101447.59;5012416;28;45612;-54
2022/05/19 16:02:51;;;;;;;;;5.25;3.75;;;;;26.13;43.15;101444.00;5011615;28;47395;-54
2022/05/19 16:05:17;;;;;;;;;4.00;4.00;;;;;26.12;43.02;101448.44;4996404;28;45293;-52
2022/05/19 16:07:43;;;;;;;;;5.75;5.00;;;;;26.14;42.90;101446.53;4995854;28;45356;-54
2022/05/19 16:10:11;;;;;;;;;5.00;5.00;;;;;26.15;43.31;101442.94;4996745;28;45386;-54
2022/05/19 16:12:37;;;;;;;;;4.00;4.00;;;;;26.17;43.55;101441.00;4996079;28;46202;-56
2022/05/19 16:15:06;;;;;;;;;5.50;4.00;;;;;26.18;43.07;101453.31;4996968;28;45521;-57
2022/05/19 16:17:32;;;;;;;;;5.00;5.00;;;;;26.17;43.07;101446.34;4996993;28;45411;-56
2022/05/19 16:19:57;;;;;;;;;4.75;4.75;;;;;26.18;42.80;101448.00;4995965;28;45575;-57
2022/05/19 16:22:27;;;;;;;;;6.25;4.25;;;;;26.16;43.30;101449.94;4996059;28;45439;-55
2022/05/19 16:24:55;;;;;;;;;4.00;4.00;;;;;26.16;42.95;101457.03;4995503;28;45732;-55
2022/05/19 16:27:21;;;;;;;;;6.00;4.50;;;;;26.14;42.73;101451.84;4994748;28;45427;-57
2022/05/19 16:29:46;;;;;;;;;4.50;4.25;;;;;26.14;42.57;101459.81;4996471;28;45684;-52
2022/05/19 16:32:11;;;;;;;;;4.50;4.50;;;;;26.12;42.84;101445.78;4996282;28;46961;-52
2022/05/19 16:34:37;;;;;;;;;4.50;3.75;;;;;26.07;43.13;101439.94;4994638;28;49553;-55
2022/05/19 16:37:05;;;;;;;;;4.25;4.25;;;;;26.11;42.85;101454.72;4996498;28;45363;-53
2022/05/19 16:39:31;;;;;;;;;6.75;4.25;;;;;26.11;42.79;101454.72;4995484;28;45419;-54
2022/05/19 16:41:56;;;;;;;;;4.00;4.00;;;;;26.11;42.89;101445.91;5007558;28;48304;-55
2022/05/19 16:44:22;;;;;;;;;5.00;5.00;;;;;26.07;42.98;101440.75;4976676;28;45444;-52
2022/05/19 16:46:48;;;;;;;;;5.00;5.00;;;;;26.12;42.88;101452.91;4976660;28;45360;-51
2022/05/19 16:49:17;;;;;;;;;5.00;5.00;;;;;26.12;42.91;101459.06;4977016;28;45428;-51
2022/05/19 16:51:42;;;;;;;;;5.00;4.25;;;;;26.12;42.97;101459.06;4976737;28;46589;-52
2022/05/19 16:59:35;;;;;;;;;5.00;5.00;;;;;26.12;43.33;101455.56;4977475;28;45326;-54
2022/05/19 17:02:02;;;;;;;;;5.00;4.50;;;;;26.12;43.16;101448.44;4976650;28;46151;-55
2022/05/19 17:04:27;;;;;;;;;5.00;4.50;;;;;26.15;43.19;101458.00;4976813;28;45474;-54
2022/05/19 17:06:52;;;;;;;;;5.75;5.00;;;;;26.13;43.53;101450.16;4976729;28;45375;-55
2022/05/19 17:09:20;;;;;;;;;5.00;5.00;;;;;26.14;42.90;101449.19;4976872;28;45595;-56
2022/05/19 17:11:45;;;;;;;;;5.00;5.00;;;;;26.15;42.95;101448.25;4976570;28;45452;-53
2022/05/19 17:14:10;;;;;;;;;5.00;5.00;;;;;26.15;43.34;101450.91;4976525;28;45388;-52
2022/05/19 17:16:36;;;;;;;;;5.75;5.00;;;;;26.15;43.44;101452.69;4976916;28;45324;-50
2022/05/19 17:19:01;;;;;;;;;6.00;4.25;;;;;26.15;43.42;101456.22;4976241;28;45328;-51
2022/05/19 17:21:27;;;;;;;;;6.00;4.25;;;;;26.15;43.74;101458.88;4979904;28;46100;-54
2022/05/19 17:23:52;;;;;;;;;6.75;5.00;;;;;26.15;43.61;101450.91;4979904;28;45389;-56
2022/05/19 17:26:20;;;;;;;;;7.75;6.00;;;;;26.14;44.12;101459.81;4979793;28;45276;-54
2022/05/19 17:28:45;;;;;;;;;4.75;4.75;;;;;26.14;43.69;101454.50;4980097;28;45223;-54
2022/05/19 17:31:11;;;;;;;;;5.00;5.00;;;;;26.14;43.87;101456.28;4979701;28;46273;-54
2022/05/19 17:33:36;;;;;;;;;4.50;4.00;;;;;26.15;43.73;101458.88;4979863;28;45371;-53
2022/05/19 17:36:04;;;;;;;;;5.00;5.00;;;;;26.13;43.99;101458.13;4979684;28;48263;-52
2022/05/19 17:38:30;;;;;;;;;5.50;5.50;;;;;26.15;44.01;101461.53;4979869;28;45538;-53
2022/05/19 17:40:55;;;;;;;;;5.00;5.00;;;;;26.14;44.05;101457.16;4979509;28;46115;-55
2022/05/19 17:43:21;;;;;;;;;5.00;5.00;;;;;26.13;44.16;101455.47;4979374;28;45317;-54
2022/05/19 17:45:46;;;;;;;;;7.00;5.25;;;;;26.14;44.39;101467.78;4979688;28;45329;-56
2022/05/19 17:48:13;;;;;;;;;6.25;6.25;;;;;26.15;44.68;101463.31;4979751;28;45579;-54
2022/05/19 17:50:39;;;;;;;;;6.00;6.00;;;;;26.15;44.58;101474.81;4979566;28;46197;-57
2022/05/19 17:53:05;;;;;;;;;6.25;6.25;;;;;26.14;44.32;101467.78;4979776;28;45336;-54
2022/05/19 17:55:31;;;;;;;;;5.50;5.50;;;;;26.14;44.49;101466.91;4979612;28;45775;-56
2022/05/19 17:57:57;;;;;;;;;5.25;5.25;;;;;26.11;44.53;101470.66;4979509;28;45570;-55
2022/05/19 18:00:26;;;;;;;;;6.50;5.75;;;;;26.13;44.33;101471.41;4979186;28;45320;-54
2022/05/19 18:02:51;;;;;;;;;6.25;6.25;;;;;26.13;44.37;101483.84;4979210;28;45992;-55
2022/05/19 18:05:17;;;;;;;;;6.00;5.00;;;;;26.12;44.50;101476.84;4979295;28;45379;-55
2022/05/19 18:07:43;;;;;;;;;4.50;4.50;;;;;26.12;44.48;101475.00;4979442;28;45476;-54
2022/05/19 18:10:12;;;;;;;;;4.50;4.50;;;;;26.11;44.14;101478.63;4979301;28;46278;-55
2022/05/19 18:12:37;;;;;;;;;6.00;6.00;;;;;26.11;43.79;101481.28;4979376;28;45356;-54
2022/05/19 18:21:08;;;;;;;;;5.00;5.00;;;;;26.08;44.05;101478.78;4977689;28;46631;-54
2022/05/19 18:23:36;;;;;;;;;10.50;6.75;;;;;26.07;43.82;101471.81;4978449;28;45249;-53
2022/05/19 18:26:06;;;;;;;;;7.00;6.00;;;;;26.07;44.05;101477.13;4977102;28;45515;-52
2022/05/19 18:28:34;;;;;;;;;6.00;6.00;;;;;26.06;43.96;101475.41;4978237;28;45425;-52
2022/05/19 18:31:00;;;;;;;;;6.25;6.25;;;;;26.06;43.74;101476.25;5008537;28;48249;-54
2022/05/19 18:33:25;;;;;;;;;7.25;6.50;;;;;26.05;43.95;101473.72;4977676;28;45381;-53
2022/05/19 18:35:52;;;;;;;;;7.75;6.00;;;;;26.05;43.75;101479.03;4978227;28;45297;-59
2022/05/19 18:38:19;;;;;;;;;5.50;5.50;;;;;26.03;43.54;101476.44;4977763;28;45410;-56